createdAt,value
2022-11-14T00:00:59.669Z,8.95
2022-11-14T00:03:26.063Z,8.93
2022-11-14T00:05:52.489Z,9.14
2022-11-14T00:08:22.084Z,8.84
2022-11-14T00:10:50.070Z,8.78
2022-11-14T00:13:18.527Z,9.06
2022-11-14T00:15:50.232Z,8.90
2022-11-14T00:18:18.256Z,8.77
2022-11-14T00:20:48.542Z,8.69
2022-11-14T00:23:15.108Z,8.86
2022-11-14T00:25:41.668Z,8.86
2022-11-14T00:28:08.885Z,8.64
2022-11-14T00:30:35.350Z,8.80
2022-11-14T00:33:01.797Z,8.71
2022-11-14T00:35:28.279Z,8.89
2022-11-14T00:37:54.733Z,8.78
2022-11-14T00:40:21.167Z,8.62
2022-11-14T00:42:47.649Z,8.78
2022-11-14T00:45:15.432Z,8.44
2022-11-14T00:47:41.833Z,8.36
2022-11-14T00:50:09.718Z,8.22
2022-11-14T00:52:36.330Z,8.02
2022-11-14T00:55:02.939Z,7.94
2022-11-14T00:57:29.371Z,8.09
2022-11-14T00:59:55.907Z,7.91
2022-11-14T01:02:23.150Z,8.03
2022-11-14T01:04:49.560Z,7.83
2022-11-14T01:07:16.007Z,7.80
2022-11-14T01:09:42.408Z,7.82
2022-11-14T01:12:08.859Z,7.85
2022-11-14T01:14:35.341Z,7.80
2022-11-14T01:17:01.754Z,7.89
2022-11-14T01:19:28.141Z,7.94
2022-11-14T01:21:54.588Z,7.78
2022-11-14T01:24:21.001Z,7.84
2022-11-14T01:26:47.439Z,7.84
2022-11-14T01:29:14.050Z,7.90
2022-11-14T01:31:40.477Z,7.73
2022-11-14T01:34:06.895Z,7.71
2022-11-14T01:36:33.325Z,7.65
2022-11-14T01:38:59.727Z,7.84
2022-11-14T01:41:26.117Z,7.71
2022-11-14T01:43:52.560Z,7.66
2022-11-14T01:46:30.439Z,7.74
2022-11-14T01:49:02.890Z,7.70
2022-11-14T01:51:38.356Z,7.59
2022-11-14T01:54:14.762Z,7.66
2022-11-14T01:56:48.714Z,7.73
2022-11-14T01:59:23.530Z,7.72
2022-11-14T02:01:52.058Z,7.81
2022-11-14T02:04:24.110Z,7.88
2022-11-14T02:06:54.033Z,7.88
2022-11-14T02:09:20.878Z,7.83
2022-11-14T02:11:47.577Z,7.91
2022-11-14T02:14:14.104Z,7.82
2022-11-14T02:16:48.287Z,8.31
2022-11-14T02:19:41.149Z,8.04
2022-11-14T02:22:07.550Z,8.31
2022-11-14T02:24:33.954Z,8.16
2022-11-14T02:27:00.967Z,8.01
2022-11-14T02:29:27.397Z,7.97
2022-11-14T02:31:53.793Z,8.07
2022-11-14T02:34:20.307Z,8.07
2022-11-14T02:36:46.734Z,8.13
2022-11-14T02:39:13.156Z,8.29
2022-11-14T02:41:39.582Z,8.19
2022-11-14T02:44:05.996Z,8.22
2022-11-14T02:46:32.410Z,8.31
2022-11-14T02:48:58.838Z,8.33
2022-11-14T02:51:25.263Z,8.14
2022-11-14T02:53:51.828Z,8.29
2022-11-14T02:56:18.292Z,8.37
2022-11-14T02:58:44.675Z,8.57
2022-11-14T03:01:20.934Z,8.44
2022-11-14T03:03:47.992Z,8.07
2022-11-14T03:06:14.486Z,8.12
2022-11-14T03:08:40.882Z,8.08
2022-11-14T03:11:08.936Z,8.16
2022-11-14T03:13:35.950Z,8.13
2022-11-14T03:16:11.018Z,8.06
2022-11-14T03:18:37.747Z,8.29
2022-11-14T03:21:10.214Z,8.05
2022-11-14T03:23:37.204Z,8.02
2022-11-14T03:26:06.308Z,8.06
2022-11-14T03:28:33.114Z,8.11
2022-11-14T03:30:59.540Z,8.03
2022-11-14T03:33:25.962Z,8.21
2022-11-14T03:35:52.864Z,8.14
2022-11-14T03:38:23.002Z,8.10
2022-11-14T03:40:52.100Z,8.23
2022-11-14T03:43:20.449Z,7.99
2022-11-14T03:45:47.303Z,8.06
2022-11-14T03:48:14.025Z,7.88
2022-11-14T03:50:41.372Z,7.77
2022-11-14T03:53:08.369Z,7.63
2022-11-14T03:55:34.999Z,7.66
2022-11-14T03:58:01.730Z,7.59
2022-11-14T04:00:28.833Z,7.65
2022-11-14T04:02:56.553Z,7.64
2022-11-14T04:05:23.942Z,7.69
2022-11-14T04:07:50.766Z,7.63
2022-11-14T04:10:18.159Z,7.72
2022-11-14T04:12:52.225Z,7.80
2022-11-14T04:15:19.822Z,7.71
2022-11-14T04:17:46.991Z,7.64
2022-11-14T04:20:14.883Z,7.58
2022-11-14T04:22:41.316Z,7.68
2022-11-14T04:25:09.119Z,7.67
2022-11-14T04:27:35.650Z,7.74
2022-11-14T04:30:02.438Z,7.75
2022-11-14T04:32:28.935Z,7.66
2022-11-14T04:34:55.364Z,7.59
2022-11-14T04:37:21.798Z,7.67
2022-11-14T04:39:48.239Z,7.54
2022-11-14T04:42:14.693Z,7.63
2022-11-14T04:44:41.152Z,7.70
2022-11-14T04:47:07.821Z,7.68
2022-11-14T04:49:34.229Z,7.54
2022-11-14T04:52:00.679Z,7.47
2022-11-14T04:54:27.291Z,7.46
2022-11-14T04:56:53.757Z,7.57
2022-11-14T04:59:21.219Z,7.56
2022-11-14T05:01:47.929Z,7.59
2022-11-14T05:04:14.680Z,7.56
2022-11-14T05:06:41.198Z,7.64
2022-11-14T05:09:07.673Z,7.86
2022-11-14T05:11:34.111Z,7.62
2022-11-14T05:14:00.702Z,7.47
2022-11-14T05:16:27.136Z,7.62
2022-11-14T05:18:54.466Z,7.47
2022-11-14T05:21:20.973Z,7.75
2022-11-14T05:23:47.392Z,7.60
2022-11-14T05:26:16.984Z,7.70
2022-11-14T05:28:43.461Z,7.79
2022-11-14T05:31:13.603Z,7.65
2022-11-14T05:33:40.087Z,7.57
2022-11-14T05:36:11.926Z,7.60
2022-11-14T05:38:38.539Z,7.45
2022-11-14T05:41:07.046Z,7.46
2022-11-14T05:43:33.551Z,7.70
2022-11-14T05:46:05.123Z,7.68
2022-11-14T05:48:32.345Z,7.54
2022-11-14T05:51:01.070Z,7.32
2022-11-14T05:53:28.486Z,7.41
2022-11-14T05:55:55.367Z,7.47
2022-11-14T05:58:22.479Z,7.38
2022-11-14T06:00:53.891Z,7.39
2022-11-14T06:03:20.856Z,7.35
2022-11-14T06:05:47.246Z,7.61
2022-11-14T06:08:13.707Z,7.59
2022-11-14T06:10:40.203Z,7.57
2022-11-14T06:13:06.613Z,7.53
2022-11-14T06:15:33.047Z,7.68
2022-11-14T06:17:59.468Z,7.56
2022-11-14T06:20:25.893Z,7.67
2022-11-14T06:22:55.198Z,7.47
2022-11-14T06:25:21.590Z,7.54
2022-11-14T06:27:47.978Z,7.40
2022-11-14T06:30:14.476Z,7.45
2022-11-14T06:32:41.221Z,7.39
2022-11-14T06:35:08.349Z,7.37
2022-11-14T06:37:37.917Z,7.26
2022-11-14T06:40:04.719Z,7.43
2022-11-14T06:42:31.103Z,7.45
2022-11-14T06:44:57.533Z,7.63
2022-11-14T06:47:23.932Z,7.52
2022-11-14T06:49:50.487Z,7.43
2022-11-14T06:52:16.915Z,7.61
2022-11-14T06:54:43.338Z,7.47
2022-11-14T06:57:09.814Z,7.31
2022-11-14T06:59:36.240Z,7.49
2022-11-14T07:02:02.761Z,7.48
2022-11-14T07:04:29.197Z,7.40
2022-11-14T07:06:55.613Z,7.32
2022-11-14T07:09:22.168Z,7.32
2022-11-14T07:11:48.621Z,7.56
2022-11-14T07:14:15.017Z,7.71
2022-11-14T07:16:41.485Z,7.57
2022-11-14T07:19:09.744Z,8.02
2022-11-14T07:21:36.827Z,7.74
2022-11-14T07:24:03.536Z,7.89
2022-11-14T07:26:33.006Z,7.92
2022-11-14T07:29:02.382Z,7.81
2022-11-14T07:31:29.705Z,7.81
2022-11-14T07:33:56.183Z,7.93
2022-11-14T07:36:23.350Z,7.81
2022-11-14T07:38:49.798Z,8.35
2022-11-14T07:41:16.482Z,8.04
2022-11-14T07:43:43.356Z,7.98
2022-11-14T07:46:14.697Z,7.94
2022-11-14T07:48:41.485Z,7.85
2022-11-14T07:51:14.006Z,7.93
2022-11-14T07:53:40.577Z,7.82
2022-11-14T07:56:11.087Z,7.81
2022-11-14T07:58:39.189Z,7.71
2022-11-14T08:01:07.694Z,7.71
2022-11-14T08:03:34.748Z,7.74
2022-11-14T08:06:06.920Z,7.69
2022-11-14T08:08:33.601Z,7.58
2022-11-14T08:11:00.836Z,7.91
2022-11-14T08:13:33.121Z,8.11
2022-11-14T08:16:12.314Z,8.08
2022-11-14T08:18:39.937Z,8.04
2022-11-14T08:21:06.775Z,7.76
2022-11-14T08:23:33.260Z,7.85
2022-11-14T08:26:00.051Z,7.87
2022-11-14T08:28:26.838Z,8.09
2022-11-14T08:30:58.305Z,7.98
2022-11-14T08:33:24.727Z,8.00
2022-11-14T08:35:51.147Z,8.13
2022-11-14T08:38:17.663Z,8.01
2022-11-14T08:40:44.066Z,7.91
2022-11-14T08:43:11.643Z,7.81
2022-11-14T08:45:38.112Z,7.85
2022-11-14T08:48:05.692Z,7.94
2022-11-14T08:50:32.362Z,7.99
2022-11-14T08:52:58.932Z,7.92
2022-11-14T08:55:25.692Z,7.81
2022-11-14T08:57:53.574Z,8.02
2022-11-14T09:00:20.409Z,7.90
2022-11-14T09:02:47.100Z,7.88
2022-11-14T09:05:13.575Z,7.90
2022-11-14T09:07:40.050Z,7.88
2022-11-14T09:10:07.400Z,8.06
2022-11-14T09:12:34.279Z,8.39
2022-11-14T09:15:00.837Z,8.40
2022-11-14T09:17:27.259Z,8.36
2022-11-14T09:19:54.099Z,7.90
2022-11-14T09:22:20.578Z,8.02
2022-11-14T09:24:47.744Z,7.90
2022-11-14T09:27:14.349Z,7.83
2022-11-14T09:29:41.013Z,7.80
2022-11-14T09:32:07.631Z,7.73
2022-11-14T09:34:34.089Z,7.82
2022-11-14T09:37:00.517Z,7.86
2022-11-14T09:39:26.958Z,7.80
2022-11-14T09:42:02.488Z,7.75
2022-11-14T09:45:10.518Z,8.33
2022-11-14T09:47:46.313Z,8.38
2022-11-14T09:50:26.015Z,8.09
2022-11-14T09:52:56.536Z,8.27
2022-11-14T09:55:30.991Z,8.03
2022-11-14T09:58:02.766Z,8.03
2022-11-14T10:00:55.941Z,7.84
2022-11-14T10:03:43.500Z,7.75
2022-11-14T10:06:28.352Z,7.80
2022-11-14T10:09:19.867Z,8.04
2022-11-14T10:11:58.402Z,7.79
2022-11-14T10:14:31.120Z,8.21
2022-11-14T10:17:16.067Z,8.04
2022-11-14T10:20:00.225Z,8.06
2022-11-14T10:22:58.652Z,7.88
2022-11-14T10:25:40.861Z,7.89
2022-11-14T10:28:40.723Z,7.54
2022-11-14T10:31:38.158Z,7.97
2022-11-14T10:34:27.996Z,7.87
2022-11-14T10:37:15.452Z,8.24
2022-11-14T10:39:49.906Z,8.33
2022-11-14T10:42:21.417Z,8.25
2022-11-14T10:44:56.185Z,7.95
2022-11-14T10:47:25.350Z,7.61
2022-11-14T10:49:58.211Z,7.67
2022-11-14T10:52:41.525Z,7.48
2022-11-14T10:55:16.541Z,7.79
2022-11-14T10:57:45.499Z,7.94
2022-11-14T11:00:20.395Z,7.75
2022-11-14T11:02:57.726Z,8.01
2022-11-14T11:05:29.814Z,8.02
2022-11-14T11:08:44.984Z,8.52
2022-11-14T11:11:23.691Z,8.14
2022-11-14T11:13:55.691Z,8.23
2022-11-14T11:16:24.350Z,8.25
2022-11-14T11:18:51.372Z,8.30
2022-11-14T11:21:20.885Z,8.51
2022-11-14T11:23:54.595Z,8.19
2022-11-14T11:26:29.452Z,8.03
2022-11-14T11:29:11.149Z,8.25
2022-11-14T11:31:58.455Z,8.49
2022-11-14T11:34:32.101Z,8.20
2022-11-14T11:37:26.811Z,8.27
2022-11-14T11:39:56.378Z,8.43
2022-11-14T11:42:58.771Z,8.42
2022-11-14T11:45:19.110Z,8.63
2022-11-14T11:48:08.867Z,8.77
2022-11-14T11:50:36.534Z,8.91
2022-11-14T11:53:15.070Z,8.83
2022-11-14T11:55:44.897Z,8.61
2022-11-14T11:58:29.904Z,8.61
2022-11-14T12:00:56.458Z,8.69
2022-11-14T12:03:25.735Z,8.77
2022-11-14T12:06:10.645Z,8.55
2022-11-14T12:08:43.098Z,8.71
2022-11-14T12:11:19.032Z,8.91
2022-11-14T12:13:51.505Z,8.68
2022-11-14T12:16:45.920Z,8.96
2022-11-14T12:19:35.537Z,8.75
2022-11-14T12:22:32.887Z,8.85
2022-11-14T12:25:21.161Z,9.02
2022-11-14T12:28:08.955Z,9.16
2022-11-14T12:30:37.944Z,9.35
2022-11-14T12:33:31.323Z,9.45
2022-11-14T12:36:00.804Z,9.41
2022-11-14T12:38:34.853Z,9.26
2022-11-14T12:41:02.041Z,9.10
2022-11-14T12:43:33.188Z,9.17
2022-11-14T12:46:08.585Z,9.15
2022-11-14T12:48:52.868Z,10.41
2022-11-14T12:51:25.576Z,10.60
2022-11-14T12:53:55.903Z,11.77
2022-11-14T12:56:31.586Z,12.89
2022-11-14T12:59:09.006Z,14.66
2022-11-14T13:01:54.045Z,14.46
2022-11-14T13:04:46.198Z,16.72
2022-11-14T13:07:15.590Z,16.57
2022-11-14T13:10:13.728Z,16.43
2022-11-14T13:13:29.400Z,15.88
2022-11-14T13:16:16.820Z,16.23
2022-11-14T13:19:14.178Z,16.46
2022-11-14T13:22:12.203Z,16.83
2022-11-14T13:25:01.152Z,17.19
2022-11-14T13:27:45.560Z,16.55
2022-11-14T13:30:16.497Z,15.30
2022-11-14T13:32:42.946Z,15.69
2022-11-14T13:35:15.995Z,16.52
2022-11-14T13:37:52.396Z,15.76
2022-11-14T13:40:28.581Z,15.95
2022-11-14T13:43:22.637Z,15.31
2022-11-14T13:46:04.706Z,16.36
2022-11-14T13:48:47.671Z,15.99
2022-11-14T13:51:41.770Z,14.67
2022-11-14T13:54:17.143Z,15.52
2022-11-14T13:57:01.376Z,15.62
2022-11-14T13:59:55.138Z,15.91
2022-11-14T14:02:21.477Z,15.63
2022-11-14T14:05:20.789Z,15.56
2022-11-14T14:08:06.421Z,14.78
2022-11-14T14:11:03.125Z,14.13
2022-11-14T14:13:55.750Z,13.32
2022-11-14T14:16:33.779Z,14.58
2022-11-14T14:19:16.211Z,13.32
2022-11-14T14:21:57.237Z,13.67
2022-11-14T14:24:46.733Z,13.13
2022-11-14T14:27:33.718Z,13.02
2022-11-14T14:30:19.693Z,12.49
2022-11-14T14:33:07.650Z,12.07
2022-11-14T14:35:41.539Z,12.49
2022-11-14T14:38:12.933Z,12.07
2022-11-14T14:40:42.018Z,11.91
2022-11-14T14:43:22.759Z,11.74
2022-11-14T14:45:53.846Z,11.55
2022-11-14T14:48:27.195Z,12.04
2022-11-14T14:50:56.147Z,10.93
2022-11-14T14:53:25.917Z,10.44
2022-11-14T14:56:04.180Z,9.81
2022-11-14T14:58:32.851Z,9.43
2022-11-14T15:01:27.067Z,9.31
2022-11-14T15:04:02.572Z,9.03
2022-11-14T15:06:34.074Z,8.61
2022-11-14T15:09:09.686Z,8.56
2022-11-14T15:11:40.013Z,8.25
2022-11-14T15:14:10.654Z,8.11
2022-11-14T15:16:37.269Z,8.16
2022-11-14T15:19:04.842Z,7.88
2022-11-14T15:21:31.255Z,7.76
2022-11-14T15:24:02.243Z,7.71
2022-11-14T15:26:31.490Z,7.46
2022-11-14T15:29:13.594Z,7.41
2022-11-14T15:31:58.783Z,7.51
2022-11-14T15:34:33.857Z,7.39
2022-11-14T15:37:08.506Z,7.53
2022-11-14T15:39:34.985Z,7.56
2022-11-14T15:42:17.789Z,7.13
2022-11-14T15:44:45.210Z,7.01
2022-11-14T15:47:17.823Z,7.14
2022-11-14T15:50:05.264Z,6.82
2022-11-14T15:52:40.964Z,6.67
2022-11-14T15:55:17.648Z,6.63
2022-11-14T15:57:51.676Z,6.45
2022-11-14T16:00:22.906Z,6.45
2022-11-14T16:02:59.085Z,6.43
2022-11-14T16:05:29.245Z,6.41
2022-11-14T16:07:56.094Z,6.37
2022-11-14T16:10:24.670Z,6.43
2022-11-14T16:12:52.579Z,6.39
2022-11-14T16:15:20.152Z,6.37
2022-11-14T16:17:48.675Z,6.32
2022-11-14T16:20:17.283Z,6.29
2022-11-14T16:22:44.391Z,6.28
2022-11-14T16:25:28.070Z,6.27
2022-11-14T16:27:54.526Z,6.17
2022-11-14T16:30:23.157Z,6.24
2022-11-14T16:32:51.221Z,6.12
2022-11-14T16:35:23.320Z,6.15
2022-11-14T16:37:50.306Z,6.26
2022-11-14T16:40:20.541Z,6.14
2022-11-14T16:42:47.365Z,6.19
2022-11-14T16:45:14.299Z,6.51
2022-11-14T16:47:40.883Z,6.45
2022-11-14T16:50:07.949Z,6.31
2022-11-14T16:52:34.359Z,6.18
2022-11-14T16:55:00.778Z,6.24
2022-11-14T16:57:27.412Z,6.17
2022-11-14T17:00:03.230Z,6.22
2022-11-14T17:02:29.663Z,6.21
2022-11-14T17:04:56.078Z,6.20
2022-11-14T17:07:23.107Z,5.99
2022-11-14T17:09:49.680Z,5.84
2022-11-14T17:12:16.135Z,5.96
2022-11-14T17:14:43.129Z,5.83
2022-11-14T17:17:09.724Z,5.72
2022-11-14T17:19:36.204Z,5.68
2022-11-14T17:22:02.666Z,5.82
2022-11-14T17:24:31.544Z,5.78
2022-11-14T17:26:58.388Z,5.77
2022-11-14T17:29:24.846Z,5.80
2022-11-14T17:31:51.254Z,5.81
2022-11-14T17:34:17.785Z,5.68
2022-11-14T17:36:44.359Z,5.64
2022-11-14T17:39:10.871Z,5.79
2022-11-14T17:41:37.346Z,5.87
2022-11-14T17:44:05.365Z,5.74
2022-11-14T17:46:32.141Z,5.73
2022-11-14T17:48:59.209Z,5.71
2022-11-14T17:51:25.683Z,5.70
2022-11-14T17:53:52.651Z,5.69
2022-11-14T17:56:24.174Z,5.55
2022-11-14T17:58:53.006Z,5.46
2022-11-14T18:01:23.086Z,5.49
2022-11-14T18:03:50.301Z,5.46
2022-11-14T18:06:19.261Z,5.47
2022-11-14T18:08:46.484Z,5.45
2022-11-14T18:11:14.807Z,5.53
2022-11-14T18:13:41.336Z,5.49
2022-11-14T18:16:13.861Z,5.45
2022-11-14T18:18:40.613Z,5.28
2022-11-14T18:21:13.840Z,5.26
2022-11-14T18:23:40.502Z,5.23
2022-11-14T18:26:15.189Z,5.28
2022-11-14T18:28:42.478Z,5.17
2022-11-14T18:31:13.417Z,5.21
2022-11-14T18:33:41.452Z,5.23
2022-11-14T18:36:11.975Z,5.26
2022-11-14T18:38:38.889Z,5.20
2022-11-14T18:41:12.898Z,5.16
2022-11-14T18:43:39.806Z,5.34
2022-11-14T18:46:18.393Z,5.52
2022-11-14T18:48:47.276Z,5.53
2022-11-14T18:51:23.078Z,5.48
2022-11-14T18:53:51.455Z,5.39
2022-11-14T18:56:20.551Z,5.43
2022-11-14T18:58:48.277Z,5.50
2022-11-14T19:01:24.067Z,5.48
2022-11-14T19:03:52.027Z,5.47
2022-11-14T19:06:20.043Z,5.37
2022-11-14T19:08:46.769Z,5.31
2022-11-14T19:11:34.797Z,5.40
2022-11-14T19:14:03.568Z,5.59
2022-11-14T19:16:31.695Z,5.59
2022-11-14T19:18:59.179Z,5.54
2022-11-14T19:21:26.071Z,5.46
2022-11-14T19:23:55.788Z,5.46
2022-11-14T19:26:23.403Z,5.43
2022-11-14T19:28:50.028Z,5.44
2022-11-14T19:31:17.016Z,5.46
2022-11-14T19:33:44.882Z,5.46
2022-11-14T19:36:32.335Z,5.38
2022-11-14T19:39:03.696Z,5.43
2022-11-14T19:41:31.016Z,5.52
2022-11-14T19:43:59.761Z,5.35
2022-11-14T19:46:28.749Z,5.30
2022-11-14T19:49:00.130Z,5.23
2022-11-14T19:51:28.124Z,5.26
2022-11-14T19:53:55.674Z,5.23
2022-11-14T19:56:23.361Z,5.34
2022-11-14T19:58:51.548Z,5.48
2022-11-14T20:01:19.491Z,5.35
2022-11-14T20:03:55.064Z,5.37
2022-11-14T20:06:25.005Z,5.29
2022-11-14T20:08:52.121Z,5.23
2022-11-14T20:11:19.283Z,5.26
2022-11-14T20:13:46.228Z,5.29
2022-11-14T20:16:15.466Z,5.37
2022-11-14T20:18:45.601Z,5.50
2022-11-14T20:21:14.294Z,5.69
2022-11-14T20:23:40.917Z,5.57
2022-11-14T20:26:11.209Z,5.49
2022-11-14T20:28:39.662Z,5.41
2022-11-14T20:31:09.810Z,5.66
2022-11-14T20:33:38.218Z,5.62
2022-11-14T20:36:06.461Z,5.40
2022-11-14T20:38:33.269Z,5.33
2022-11-14T20:41:00.831Z,5.31
2022-11-14T20:43:28.855Z,5.25
2022-11-14T20:46:03.788Z,5.30
2022-11-14T20:48:32.329Z,5.25
2022-11-14T20:51:22.844Z,5.18
2022-11-14T20:53:51.231Z,5.33
2022-11-14T20:56:18.516Z,5.08
2022-11-14T20:58:46.480Z,4.93
2022-11-14T21:01:14.223Z,4.87
2022-11-14T21:03:40.801Z,4.93
2022-11-14T21:06:10.907Z,5.07
2022-11-14T21:08:38.216Z,5.01
2022-11-14T21:11:08.169Z,5.02
2022-11-14T21:13:54.771Z,5.16
2022-11-14T21:16:22.349Z,5.12
2022-11-14T21:18:52.686Z,5.08
2022-11-14T21:21:20.969Z,5.10
2022-11-14T21:23:47.576Z,4.99
2022-11-14T21:26:25.267Z,5.23
2022-11-14T21:29:04.003Z,4.95
2022-11-14T21:31:45.332Z,4.98
2022-11-14T21:34:14.076Z,5.23
2022-11-14T21:36:45.580Z,5.22
2022-11-14T21:39:14.656Z,5.34
2022-11-14T21:41:42.477Z,5.30
2022-11-14T21:44:12.883Z,5.17
2022-11-14T21:46:39.353Z,5.06
2022-11-14T21:49:05.761Z,4.92
2022-11-14T21:51:32.205Z,4.82
2022-11-14T21:53:58.767Z,4.93
2022-11-14T21:56:27.997Z,4.83
2022-11-14T21:59:13.697Z,4.77
2022-11-14T22:02:09.443Z,4.72
2022-11-14T22:04:36.684Z,4.62
2022-11-14T22:07:07.958Z,4.68
2022-11-14T22:09:35.184Z,4.72
2022-11-14T22:12:02.016Z,4.81
2022-11-14T22:14:29.423Z,4.83
2022-11-14T22:16:56.077Z,4.80
2022-11-14T22:19:22.578Z,4.78
2022-11-14T22:21:49.037Z,4.69
2022-11-14T22:24:15.442Z,4.78
2022-11-14T22:26:41.941Z,4.82
2022-11-14T22:29:08.729Z,4.72
2022-11-14T22:31:36.610Z,4.71
2022-11-14T22:34:03.470Z,4.70
2022-11-14T22:36:29.926Z,4.62
2022-11-14T22:38:56.946Z,4.49
2022-11-14T22:41:33.212Z,4.48
2022-11-14T22:44:00.497Z,4.38
2022-11-14T22:46:27.514Z,4.33
2022-11-14T22:48:54.716Z,4.28
2022-11-14T22:51:26.393Z,4.43
2022-11-14T22:53:54.691Z,4.37
2022-11-14T22:56:22.742Z,4.40
2022-11-14T22:58:49.231Z,4.46
2022-11-14T23:01:29.846Z,4.46
2022-11-14T23:04:01.868Z,4.55
2022-11-14T23:06:30.217Z,4.80
2022-11-14T23:08:56.706Z,4.65
2022-11-14T23:11:26.382Z,4.69
2022-11-14T23:13:54.948Z,4.75
2022-11-14T23:16:23.779Z,4.57
2022-11-14T23:18:51.168Z,4.56
2022-11-14T23:21:23.434Z,4.61
2022-11-14T23:24:01.091Z,4.53
2022-11-14T23:26:29.105Z,4.58
2022-11-14T23:28:56.044Z,4.60
2022-11-14T23:31:23.543Z,4.53
2022-11-14T23:33:53.250Z,4.41
2022-11-14T23:36:20.037Z,4.47
2022-11-14T23:38:46.847Z,4.30
2022-11-14T23:41:19.201Z,4.30
2022-11-14T23:43:46.401Z,4.22
2022-11-14T23:46:13.624Z,4.17
2022-11-14T23:48:40.214Z,4.13
2022-11-14T23:51:07.037Z,4.22
2022-11-14T23:53:33.658Z,4.13
2022-11-14T23:56:02.204Z,4.21
2022-11-14T23:58:29.184Z,4.10
